createdAt,value
2023-01-29T00:01:26.287Z,20.96
2023-01-29T00:03:52.548Z,21.11
2023-01-29T00:06:18.830Z,20.80
2023-01-29T00:08:45.105Z,20.93
2023-01-29T00:11:11.403Z,20.50
2023-01-29T00:13:37.683Z,20.84
2023-01-29T00:16:03.944Z,21.04
2023-01-29T00:18:30.205Z,21.06
2023-01-29T00:20:56.486Z,21.26
2023-01-29T00:23:22.747Z,20.72
2023-01-29T00:25:49.018Z,20.85
2023-01-29T00:28:15.282Z,20.90
2023-01-29T00:30:41.555Z,20.66
2023-01-29T00:33:07.817Z,21.12
2023-01-29T00:35:34.091Z,20.45
2023-01-29T00:38:00.452Z,20.59
2023-01-29T00:40:26.728Z,20.83
2023-01-29T00:42:52.999Z,20.82
2023-01-29T00:45:19.253Z,20.17
2023-01-29T00:47:45.541Z,20.96
2023-01-29T00:50:11.856Z,20.48
2023-01-29T00:52:38.149Z,21.10
2023-01-29T00:55:04.402Z,20.23
2023-01-29T00:57:30.720Z,21.25
2023-01-29T00:59:56.996Z,21.48
2023-01-29T01:02:23.319Z,21.48
2023-01-29T01:04:49.606Z,21.27
2023-01-29T01:07:15.875Z,21.32
2023-01-29T01:09:42.164Z,21.53
2023-01-29T01:12:08.436Z,21.05
2023-01-29T01:14:34.715Z,21.75
2023-01-29T01:17:01.003Z,22.20
2023-01-29T01:19:27.277Z,21.66
2023-01-29T01:21:53.543Z,21.96
2023-01-29T01:24:19.844Z,22.31
2023-01-29T01:26:46.124Z,22.23
2023-01-29T01:29:12.385Z,22.36
2023-01-29T01:31:38.709Z,22.26
2023-01-29T01:34:04.972Z,22.18
2023-01-29T01:36:31.255Z,22.09
2023-01-29T01:38:57.537Z,22.28
2023-01-29T01:41:23.840Z,22.18
2023-01-29T01:43:50.119Z,22.28
2023-01-29T01:46:16.380Z,22.34
2023-01-29T01:48:42.648Z,22.67
2023-01-29T01:51:08.901Z,22.28
2023-01-29T01:53:35.161Z,22.75
2023-01-29T01:56:01.440Z,22.62
2023-01-29T01:58:27.733Z,22.67
2023-01-29T02:00:54.012Z,22.63
2023-01-29T02:03:20.305Z,22.73
2023-01-29T02:05:46.576Z,21.92
2023-01-29T02:08:12.840Z,22.67
2023-01-29T02:10:39.111Z,22.46
2023-01-29T02:13:05.359Z,22.37
2023-01-29T02:15:31.613Z,22.37
2023-01-29T02:17:57.866Z,22.60
2023-01-29T02:20:24.164Z,22.62
2023-01-29T02:22:50.445Z,22.50
2023-01-29T02:25:16.705Z,21.50
2023-01-29T02:27:43.068Z,22.03
2023-01-29T02:30:09.380Z,23.24
2023-01-29T02:32:35.628Z,22.25
2023-01-29T02:35:01.936Z,22.18
2023-01-29T02:37:28.223Z,22.03
2023-01-29T02:39:54.484Z,21.42
2023-01-29T02:42:20.760Z,21.71
2023-01-29T02:44:47.018Z,21.47
2023-01-29T02:47:13.289Z,21.67
2023-01-29T02:49:39.554Z,21.00
2023-01-29T02:52:05.814Z,21.24
2023-01-29T02:54:32.074Z,20.99
2023-01-29T02:56:58.324Z,21.66
2023-01-29T02:59:24.576Z,20.78
2023-01-29T03:01:50.843Z,20.49
2023-01-29T03:04:17.176Z,21.03
2023-01-29T03:06:43.422Z,20.39
2023-01-29T03:09:09.683Z,20.84
2023-01-29T03:11:35.959Z,20.54
2023-01-29T03:14:02.243Z,19.78
2023-01-29T03:16:28.563Z,20.07
2023-01-29T03:18:54.845Z,19.89
2023-01-29T03:21:21.129Z,20.13
2023-01-29T03:23:47.419Z,19.99
2023-01-29T03:26:13.666Z,19.78
2023-01-29T03:28:39.929Z,19.78
2023-01-29T03:31:06.225Z,20.28
2023-01-29T03:33:32.527Z,19.74
2023-01-29T03:35:58.801Z,20.36
2023-01-29T03:38:25.079Z,20.00
2023-01-29T03:40:51.350Z,19.93
2023-01-29T03:43:17.638Z,20.30
2023-01-29T03:45:43.923Z,20.52
2023-01-29T03:48:10.223Z,20.02
2023-01-29T03:50:36.477Z,20.12
2023-01-29T03:53:02.833Z,19.80
2023-01-29T03:55:29.090Z,19.56
2023-01-29T03:57:55.361Z,19.40
2023-01-29T04:00:21.709Z,20.00
2023-01-29T04:02:47.960Z,19.58
2023-01-29T04:05:14.228Z,20.01
2023-01-29T04:07:40.510Z,19.44
2023-01-29T04:10:06.787Z,19.08
2023-01-29T04:12:33.052Z,19.66
2023-01-29T04:14:59.309Z,19.90
2023-01-29T04:17:25.591Z,19.98
2023-01-29T04:19:51.860Z,19.51
2023-01-29T04:22:18.128Z,19.83
2023-01-29T04:24:44.379Z,19.88
2023-01-29T04:27:10.656Z,19.96
2023-01-29T04:29:36.906Z,20.26
2023-01-29T04:32:03.187Z,19.96
2023-01-29T04:34:29.454Z,19.35
2023-01-29T04:36:55.731Z,19.22
2023-01-29T04:39:21.985Z,19.51
2023-01-29T04:41:48.259Z,20.17
2023-01-29T04:44:14.525Z,20.38
2023-01-29T04:46:40.794Z,20.28
2023-01-29T04:49:07.048Z,20.32
2023-01-29T04:51:33.312Z,19.68
2023-01-29T04:53:59.574Z,20.12
2023-01-29T04:56:25.824Z,19.84
2023-01-29T04:58:52.085Z,19.90
2023-01-29T05:01:18.389Z,19.53
2023-01-29T05:03:44.695Z,19.46
2023-01-29T05:06:10.971Z,19.31
2023-01-29T05:08:37.239Z,19.70
2023-01-29T05:11:03.497Z,19.38
2023-01-29T05:13:29.779Z,19.09
2023-01-29T05:15:56.094Z,18.92
2023-01-29T05:18:22.404Z,19.18
2023-01-29T05:20:48.663Z,19.44
2023-01-29T05:23:14.933Z,19.94
2023-01-29T05:25:41.194Z,19.91
2023-01-29T05:28:07.451Z,19.91
2023-01-29T05:30:33.711Z,20.50
2023-01-29T05:33:00.022Z,19.85
2023-01-29T05:35:26.443Z,19.99
2023-01-29T05:37:52.723Z,20.00
2023-01-29T05:40:19.182Z,20.73
2023-01-29T05:42:45.553Z,20.94
2023-01-29T05:45:11.828Z,19.90
2023-01-29T05:47:38.100Z,20.07
2023-01-29T05:50:04.365Z,19.76
2023-01-29T05:52:30.637Z,20.17
2023-01-29T05:54:56.900Z,19.70
2023-01-29T05:57:23.176Z,20.23
2023-01-29T05:59:49.453Z,20.09
2023-01-29T06:02:15.731Z,20.21
2023-01-29T06:04:42.013Z,20.40
2023-01-29T06:07:08.304Z,20.34
2023-01-29T06:09:34.567Z,19.99
2023-01-29T06:12:00.843Z,20.31
2023-01-29T06:14:27.096Z,20.74
2023-01-29T06:16:53.374Z,20.69
2023-01-29T06:19:19.665Z,20.18
2023-01-29T06:21:45.912Z,20.37
2023-01-29T06:24:12.224Z,20.01
2023-01-29T06:26:38.501Z,20.74
2023-01-29T06:29:04.780Z,19.99
2023-01-29T06:31:38.739Z,20.08
2023-01-29T06:34:05.692Z,20.67
2023-01-29T06:36:31.956Z,20.55
2023-01-29T06:38:58.213Z,20.08
2023-01-29T06:41:24.482Z,21.10
2023-01-29T06:43:50.746Z,20.98
2023-01-29T06:46:17.005Z,21.88
2023-01-29T06:48:43.255Z,20.75
2023-01-29T06:51:09.500Z,21.03
2023-01-29T06:53:35.766Z,21.33
2023-01-29T06:56:02.051Z,21.14
2023-01-29T06:58:28.345Z,20.97
2023-01-29T07:00:54.716Z,21.10
2023-01-29T07:03:21.020Z,20.66
2023-01-29T07:05:47.299Z,20.66
2023-01-29T07:08:13.562Z,20.76
2023-01-29T07:10:39.847Z,20.13
2023-01-29T07:13:06.133Z,21.00
2023-01-29T07:15:32.383Z,20.70
2023-01-29T07:17:58.806Z,20.65
2023-01-29T07:20:25.056Z,19.95
2023-01-29T07:22:51.375Z,20.65
2023-01-29T07:25:17.661Z,20.75
2023-01-29T07:27:44.021Z,20.83
2023-01-29T07:30:10.325Z,20.86
2023-01-29T07:32:36.595Z,20.86
2023-01-29T07:35:02.855Z,20.57
2023-01-29T07:37:29.121Z,20.84
2023-01-29T07:39:55.395Z,20.41
2023-01-29T07:42:21.801Z,20.86
2023-01-29T07:44:48.058Z,20.90
2023-01-29T07:47:16.373Z,20.81
2023-01-29T07:49:43.430Z,21.61
2023-01-29T07:52:09.723Z,20.45
2023-01-29T07:54:35.979Z,22.02
2023-01-29T07:57:02.250Z,21.56
2023-01-29T07:59:28.520Z,21.45
2023-01-29T08:01:54.831Z,27.06
2023-01-29T08:04:21.127Z,29.38
2023-01-29T08:06:47.395Z,27.01
2023-01-29T08:09:13.691Z,24.95
2023-01-29T08:11:39.940Z,21.98
2023-01-29T08:14:06.224Z,21.27
2023-01-29T08:16:32.488Z,22.96
2023-01-29T08:18:58.773Z,23.49
2023-01-29T08:21:25.046Z,22.17
2023-01-29T08:23:51.371Z,21.20
2023-01-29T08:26:17.633Z,21.01
2023-01-29T08:28:43.899Z,21.39
2023-01-29T08:31:10.288Z,21.50
2023-01-29T08:33:39.369Z,21.22
2023-01-29T08:36:05.820Z,21.74
2023-01-29T08:38:32.169Z,21.99
2023-01-29T08:40:58.447Z,22.10
2023-01-29T08:43:24.742Z,21.95
2023-01-29T08:45:51.102Z,21.39
2023-01-29T08:48:17.415Z,21.83
2023-01-29T08:50:43.680Z,22.01
2023-01-29T08:53:09.978Z,21.83
2023-01-29T08:55:36.252Z,22.13
2023-01-29T08:58:02.501Z,22.39
2023-01-29T09:00:28.854Z,21.31
2023-01-29T09:02:55.123Z,22.21
2023-01-29T09:05:21.390Z,21.71
2023-01-29T09:07:47.674Z,22.37
2023-01-29T09:10:13.958Z,22.91
2023-01-29T09:12:40.256Z,22.83
2023-01-29T09:15:06.532Z,22.69
2023-01-29T09:17:32.810Z,22.15
2023-01-29T09:19:59.086Z,22.00
2023-01-29T09:22:25.378Z,21.71
2023-01-29T09:24:51.655Z,22.48
2023-01-29T09:27:17.945Z,21.69
2023-01-29T09:29:44.228Z,23.21
2023-01-29T09:32:10.521Z,25.44
2023-01-29T09:34:36.843Z,24.44
2023-01-29T09:37:03.106Z,22.45
2023-01-29T09:39:29.399Z,22.33
2023-01-29T09:41:55.672Z,22.44
2023-01-29T09:44:22.051Z,22.31
2023-01-29T09:46:48.321Z,22.21
2023-01-29T09:49:14.571Z,22.64
2023-01-29T09:51:40.869Z,22.18
2023-01-29T09:54:07.143Z,22.20
2023-01-29T09:56:33.399Z,22.94
2023-01-29T09:59:01.364Z,22.00
2023-01-29T10:01:28.050Z,23.03
2023-01-29T10:03:54.458Z,22.44
2023-01-29T10:06:20.733Z,22.48
2023-01-29T10:08:47.013Z,22.18
2023-01-29T10:11:13.285Z,22.51
2023-01-29T10:13:39.555Z,22.39
2023-01-29T10:16:05.816Z,23.18
2023-01-29T10:18:32.119Z,22.72
2023-01-29T10:20:58.403Z,23.11
2023-01-29T10:23:24.705Z,22.71
2023-01-29T10:25:50.966Z,22.14
2023-01-29T10:28:17.264Z,22.57
2023-01-29T10:30:43.591Z,23.15
2023-01-29T10:33:09.918Z,22.30
2023-01-29T10:35:36.235Z,22.62
2023-01-29T10:38:02.550Z,22.70
2023-01-29T10:40:28.904Z,22.52
2023-01-29T10:42:56.281Z,22.85
2023-01-29T10:45:22.544Z,22.05
2023-01-29T10:47:48.941Z,22.35
2023-01-29T10:50:15.351Z,21.61
2023-01-29T10:52:41.626Z,21.96
2023-01-29T10:55:07.924Z,22.43
2023-01-29T10:57:34.186Z,21.47
2023-01-29T11:00:00.447Z,22.64
2023-01-29T11:02:26.734Z,22.67
2023-01-29T11:04:53.000Z,22.44
2023-01-29T11:07:19.248Z,22.65
2023-01-29T11:09:45.511Z,23.03
2023-01-29T11:12:11.789Z,22.78
2023-01-29T11:14:38.100Z,22.61
2023-01-29T11:17:04.410Z,21.11
2023-01-29T11:19:30.724Z,21.50
2023-01-29T11:21:57.020Z,21.91
2023-01-29T11:24:23.316Z,22.31
2023-01-29T11:26:49.584Z,22.45
2023-01-29T11:29:15.859Z,21.32
2023-01-29T11:31:42.176Z,22.38
2023-01-29T11:34:08.473Z,22.37
2023-01-29T11:36:34.756Z,22.26
2023-01-29T11:39:01.012Z,21.67
2023-01-29T11:41:27.286Z,21.80
2023-01-29T11:43:53.553Z,21.89
2023-01-29T11:46:19.875Z,22.56
2023-01-29T11:48:46.164Z,22.51
2023-01-29T11:51:12.422Z,22.40
2023-01-29T11:53:38.702Z,23.24
2023-01-29T11:56:04.955Z,23.20
2023-01-29T11:58:31.255Z,22.98
2023-01-29T12:00:57.551Z,22.52
2023-01-29T12:03:25.122Z,22.80
2023-01-29T12:05:51.570Z,23.37
2023-01-29T12:08:17.854Z,22.58
2023-01-29T12:10:44.110Z,22.21
2023-01-29T12:13:10.393Z,21.98
2023-01-29T12:15:36.817Z,21.97
2023-01-29T12:18:03.106Z,21.45
2023-01-29T12:20:29.385Z,21.74
2023-01-29T12:22:55.671Z,22.76
2023-01-29T12:25:21.947Z,22.73
2023-01-29T12:27:48.218Z,22.30
2023-01-29T12:30:14.850Z,21.22
2023-01-29T12:32:41.308Z,22.36
2023-01-29T12:35:07.594Z,22.24
2023-01-29T12:37:33.858Z,23.11
2023-01-29T12:40:00.150Z,23.57
2023-01-29T12:42:26.425Z,23.41
2023-01-29T12:44:52.674Z,23.48
2023-01-29T12:47:18.961Z,23.25
2023-01-29T12:49:45.622Z,22.29
2023-01-29T12:52:12.276Z,22.34
2023-01-29T12:54:38.927Z,21.77
2023-01-29T12:57:05.462Z,22.51
2023-01-29T12:59:31.899Z,22.11
2023-01-29T13:01:58.486Z,22.31
2023-01-29T13:04:25.204Z,22.93
2023-01-29T13:06:51.486Z,23.23
2023-01-29T13:09:17.784Z,22.57
2023-01-29T13:11:44.061Z,22.49
2023-01-29T13:14:10.347Z,22.21
2023-01-29T13:16:36.689Z,22.08
2023-01-29T13:19:02.944Z,22.57
2023-01-29T13:21:29.196Z,22.40
2023-01-29T13:23:55.619Z,22.16
2023-01-29T13:26:21.912Z,22.40
2023-01-29T13:28:48.284Z,22.46
2023-01-29T13:31:14.553Z,23.49
2023-01-29T13:33:40.805Z,24.55
2023-01-29T13:36:07.068Z,27.29
2023-01-29T13:38:33.362Z,24.91
2023-01-29T13:40:59.680Z,23.47
2023-01-29T13:43:25.968Z,23.61
2023-01-29T13:45:52.303Z,22.77
2023-01-29T13:48:18.589Z,22.37
2023-01-29T13:50:44.876Z,22.60
2023-01-29T13:53:11.160Z,23.04
2023-01-29T13:55:37.450Z,23.03
2023-01-29T13:58:03.702Z,22.94
2023-01-29T14:00:29.957Z,22.82
2023-01-29T14:02:56.220Z,23.25
2023-01-29T14:05:22.490Z,22.99
2023-01-29T14:07:48.759Z,23.45
2023-01-29T14:10:15.037Z,23.63
2023-01-29T14:12:41.326Z,23.30
2023-01-29T14:15:07.612Z,23.93
2023-01-29T14:17:33.892Z,23.51
2023-01-29T14:20:00.164Z,22.71
2023-01-29T14:22:26.438Z,24.15
2023-01-29T14:24:52.701Z,22.81
2023-01-29T14:27:18.972Z,23.21
2023-01-29T14:29:45.270Z,23.27
2023-01-29T14:32:11.552Z,22.62
2023-01-29T14:34:37.846Z,22.00
2023-01-29T14:37:04.126Z,22.60
2023-01-29T14:39:30.427Z,21.99
2023-01-29T14:41:56.712Z,21.55
2023-01-29T14:44:23.004Z,21.66
2023-01-29T14:46:49.289Z,22.38
2023-01-29T14:49:15.551Z,21.02
2023-01-29T14:51:41.832Z,20.85
2023-01-29T14:54:08.119Z,20.72
2023-01-29T14:56:34.400Z,20.06
2023-01-29T14:59:00.661Z,20.90
2023-01-29T15:01:27.000Z,21.07
2023-01-29T15:03:53.299Z,20.90
2023-01-29T15:06:19.607Z,19.41
2023-01-29T15:08:45.880Z,19.65
2023-01-29T15:11:12.169Z,20.27
2023-01-29T15:13:38.448Z,20.53
2023-01-29T15:16:04.757Z,20.29
2023-01-29T15:18:31.060Z,20.90
2023-01-29T15:20:57.343Z,20.42
2023-01-29T15:23:23.637Z,21.73
2023-01-29T15:25:49.917Z,20.95
2023-01-29T15:28:16.195Z,20.37
2023-01-29T15:30:42.516Z,20.82
2023-01-29T15:33:08.844Z,21.05
2023-01-29T15:35:35.122Z,20.44
2023-01-29T15:38:01.403Z,20.44
2023-01-29T15:40:27.711Z,20.32
2023-01-29T15:42:53.971Z,20.59
2023-01-29T15:45:20.230Z,20.64
2023-01-29T15:47:46.544Z,20.80
2023-01-29T15:50:12.870Z,21.24
2023-01-29T15:52:39.162Z,21.32
2023-01-29T15:55:05.502Z,22.02
2023-01-29T15:57:31.759Z,21.99
2023-01-29T15:59:58.013Z,22.21
2023-01-29T16:02:24.359Z,23.79
2023-01-29T16:04:50.702Z,23.06
2023-01-29T16:07:17.031Z,22.79
2023-01-29T16:09:43.291Z,21.86
2023-01-29T16:12:09.850Z,21.33
2023-01-29T16:14:36.339Z,21.11
2023-01-29T16:17:02.648Z,20.55
2023-01-29T16:19:28.933Z,20.99
2023-01-29T16:21:55.342Z,20.56
2023-01-29T16:24:21.620Z,20.98
2023-01-29T16:26:47.973Z,22.08
2023-01-29T16:29:14.309Z,22.25
2023-01-29T16:31:40.625Z,21.72
2023-01-29T16:34:06.995Z,22.19
2023-01-29T16:36:33.310Z,22.21
2023-01-29T16:38:59.580Z,23.25
2023-01-29T16:41:25.948Z,23.45
2023-01-29T16:43:52.221Z,24.02
2023-01-29T16:46:18.571Z,23.43
2023-01-29T16:48:44.910Z,23.73
2023-01-29T16:51:11.172Z,24.46
2023-01-29T16:53:37.437Z,26.55
2023-01-29T16:56:03.723Z,27.08
2023-01-29T16:58:30.018Z,27.35
2023-01-29T17:00:56.449Z,27.53
2023-01-29T17:03:22.703Z,27.63
2023-01-29T17:05:48.961Z,27.39
2023-01-29T17:08:15.235Z,27.88
2023-01-29T17:10:41.504Z,28.35
2023-01-29T17:13:07.795Z,29.44
2023-01-29T17:15:34.065Z,32.61
2023-01-29T17:18:00.324Z,32.59
2023-01-29T17:20:27.790Z,32.10
2023-01-29T17:22:54.117Z,31.08
2023-01-29T17:25:20.532Z,29.83
2023-01-29T17:27:46.808Z,29.78
2023-01-29T17:30:13.104Z,28.15
2023-01-29T17:32:44.521Z,29.38
2023-01-29T17:35:13.426Z,41.54
2023-01-29T17:37:39.717Z,43.62
2023-01-29T17:40:06.002Z,41.70
2023-01-29T17:42:32.317Z,38.94
2023-01-29T17:44:58.599Z,35.16
2023-01-29T17:47:24.858Z,34.22
2023-01-29T17:49:51.146Z,35.36
2023-01-29T17:52:17.427Z,34.59
2023-01-29T17:54:43.717Z,30.69
2023-01-29T17:57:10.014Z,30.95
2023-01-29T17:59:36.324Z,32.40
2023-01-29T18:02:02.729Z,32.66
2023-01-29T18:04:29.127Z,32.19
2023-01-29T18:06:55.881Z,32.96
2023-01-29T18:09:22.189Z,34.87
2023-01-29T18:11:48.511Z,35.42
2023-01-29T18:14:14.955Z,36.36
2023-01-29T18:16:41.241Z,37.62
2023-01-29T18:19:07.585Z,33.71
2023-01-29T18:21:33.844Z,31.49
2023-01-29T18:24:00.122Z,32.14
2023-01-29T18:26:26.456Z,30.82
2023-01-29T18:28:52.730Z,30.18
2023-01-29T18:31:19.056Z,30.59
2023-01-29T18:33:45.387Z,31.07
2023-01-29T18:36:11.747Z,35.36
2023-01-29T18:38:38.033Z,34.43
2023-01-29T18:41:04.340Z,32.98
2023-01-29T18:43:30.610Z,32.67
2023-01-29T18:45:56.911Z,32.79
2023-01-29T18:48:23.197Z,32.53
2023-01-29T18:50:49.494Z,31.49
2023-01-29T18:53:15.819Z,30.90
2023-01-29T18:55:42.083Z,31.66
2023-01-29T18:58:29.163Z,32.67
2023-01-29T19:00:54.667Z,33.01
2023-01-29T19:03:21.150Z,35.45
2023-01-29T19:05:47.468Z,39.01
2023-01-29T19:08:15.703Z,41.84
2023-01-29T19:10:42.071Z,40.26
2023-01-29T19:13:08.331Z,38.62
2023-01-29T19:15:34.597Z,39.22
2023-01-29T19:18:00.909Z,38.57
2023-01-29T19:20:27.228Z,34.48
2023-01-29T19:22:53.510Z,32.41
2023-01-29T19:25:20.172Z,32.34
2023-01-29T19:27:46.609Z,32.32
2023-01-29T19:30:12.932Z,32.10
2023-01-29T19:32:39.219Z,32.12
2023-01-29T19:35:05.469Z,31.40
2023-01-29T19:37:31.851Z,32.45
2023-01-29T19:39:58.138Z,30.17
2023-01-29T19:42:24.426Z,30.21
2023-01-29T19:44:50.688Z,29.56
2023-01-29T19:47:17.012Z,29.23
2023-01-29T19:49:43.388Z,29.09
2023-01-29T19:52:09.680Z,26.85
2023-01-29T19:54:35.953Z,27.42
2023-01-29T19:57:02.245Z,27.68
2023-01-29T19:59:28.552Z,28.42
2023-01-29T20:01:55.042Z,29.12
2023-01-29T20:04:21.358Z,29.78
2023-01-29T20:06:47.637Z,30.26
2023-01-29T20:09:13.900Z,31.16
2023-01-29T20:11:40.203Z,32.52
2023-01-29T20:14:06.467Z,32.91
2023-01-29T20:16:32.787Z,33.37
2023-01-29T20:19:13.392Z,34.14
2023-01-29T20:21:40.992Z,33.72
2023-01-29T20:24:07.971Z,33.66
2023-01-29T20:26:34.332Z,33.77
2023-01-29T20:29:00.635Z,33.19
2023-01-29T20:31:26.954Z,32.76
2023-01-29T20:33:53.260Z,33.59
2023-01-29T20:36:19.605Z,33.14
2023-01-29T20:38:45.868Z,33.79
2023-01-29T20:41:12.151Z,35.03
2023-01-29T20:43:38.435Z,33.77
2023-01-29T20:46:04.807Z,34.46
2023-01-29T20:48:31.127Z,33.88
2023-01-29T20:50:57.441Z,33.51
2023-01-29T20:53:23.743Z,33.95
2023-01-29T20:55:50.102Z,33.73
2023-01-29T20:58:16.636Z,34.14
2023-01-29T21:00:42.949Z,34.21
2023-01-29T21:03:09.239Z,34.79
2023-01-29T21:05:35.535Z,34.94
2023-01-29T21:08:01.822Z,35.21
2023-01-29T21:10:28.100Z,36.18
2023-01-29T21:12:54.342Z,35.41
2023-01-29T21:15:20.714Z,35.32
2023-01-29T21:17:46.969Z,34.33
2023-01-29T21:20:13.282Z,33.72
2023-01-29T21:22:39.567Z,33.18
2023-01-29T21:25:05.836Z,33.81
2023-01-29T21:27:32.120Z,33.83
2023-01-29T21:29:58.381Z,33.93
2023-01-29T21:32:24.666Z,34.55
2023-01-29T21:34:52.575Z,34.88
2023-01-29T21:37:18.999Z,35.54
2023-01-29T21:39:45.265Z,35.99
2023-01-29T21:42:11.591Z,35.56
2023-01-29T21:44:37.884Z,35.20
2023-01-29T21:47:04.165Z,35.08
2023-01-29T21:49:30.475Z,33.83
2023-01-29T21:51:56.890Z,33.95
2023-01-29T21:54:23.188Z,33.85
2023-01-29T21:56:49.459Z,34.63
2023-01-29T21:59:15.744Z,34.18
2023-01-29T22:01:42.024Z,34.52
2023-01-29T22:04:08.337Z,34.14
2023-01-29T22:06:34.703Z,34.66
2023-01-29T22:09:00.998Z,34.15
2023-01-29T22:11:27.418Z,33.14
2023-01-29T22:13:53.697Z,32.61
2023-01-29T22:16:19.958Z,33.63
2023-01-29T22:18:46.228Z,33.81
2023-01-29T22:21:12.493Z,33.52
2023-01-29T22:23:38.791Z,33.58
2023-01-29T22:26:05.089Z,34.28
2023-01-29T22:28:31.363Z,33.15
2023-01-29T22:30:57.645Z,32.89
2023-01-29T22:33:23.930Z,32.64
2023-01-29T22:35:50.186Z,32.61
2023-01-29T22:38:16.459Z,32.62
2023-01-29T22:40:42.715Z,32.89
2023-01-29T22:43:08.992Z,33.55
2023-01-29T22:45:35.292Z,32.76
2023-01-29T22:48:01.600Z,32.36
2023-01-29T22:50:27.885Z,33.88
2023-01-29T22:52:54.357Z,35.56
2023-01-29T22:55:20.649Z,35.34
2023-01-29T22:57:46.926Z,35.05
2023-01-29T23:00:13.201Z,35.58
2023-01-29T23:02:39.471Z,35.93
2023-01-29T23:05:05.731Z,36.20
2023-01-29T23:07:31.997Z,37.09
2023-01-29T23:09:58.363Z,36.65
2023-01-29T23:12:24.623Z,35.69
2023-01-29T23:14:50.901Z,35.86
2023-01-29T23:17:17.162Z,34.81
2023-01-29T23:19:43.536Z,34.38
2023-01-29T23:22:09.787Z,33.66
2023-01-29T23:24:36.079Z,34.18
2023-01-29T23:27:02.355Z,33.96
2023-01-29T23:29:28.613Z,33.25
2023-01-29T23:31:54.880Z,31.69
2023-01-29T23:34:21.143Z,30.38
2023-01-29T23:36:47.405Z,30.67
2023-01-29T23:39:13.665Z,30.94
2023-01-29T23:41:39.938Z,32.19
2023-01-29T23:44:06.217Z,31.66
2023-01-29T23:46:32.522Z,32.21
2023-01-29T23:48:58.823Z,32.22
2023-01-29T23:51:25.089Z,31.47
2023-01-29T23:53:51.341Z,30.28
2023-01-29T23:56:17.598Z,30.08
2023-01-29T23:58:43.853Z,31.05
